»·PEaware :: PH-KIM KTOA-KVNY

PH-KIM :: KTOA-KVNY

FLIGHT INFORMATION

Flight Status: Arrived
Operator: Privately registered:
Netherlands
More flights under this callsign
Pilot: Kim B. (19519)
Aircraft: Unknown
(JU52)
More flights by this aircraft type
Origin: KTOA Zamperini
United States
Destination: KVNY Van Nuys
United States
More flights between these airports :: More routes between these airports
Route: LAX170 LIMBO V64 SMO125 SMO SMO317 CANOG
File this flight plan on PilotEdge
Remarks: SKY-1
Altitude:
(Current/Filed)
4,000ft
Speed:
(Current/Filed)
120kts
Departed: 03-Oct-18 07:15 PM
Arrived: 03-Oct-18 08:27 PM
Distance/Time
Traveled:
26nm/1:11
Distance/Time
To Go:
Arrived

Flight Plot

Page will automatically refresh every two minutes.

Flight plan parsing failed; only flown route is shown


Map Options




Map Legend


Flown Route
Filed Route
Departure Airport
Arrival Airport
Navaid (VOR, NDB)
Fix

Horizontal Profiles

Position Reports

Time Latitude Longitude Heading Altitude Ground
Speed
03-Oct-18 19:06 33.803347 -118.344052 38 104ft 0kts
03-Oct-18 19:07 33.803347 -118.344052 38 104ft 0kts
03-Oct-18 19:08 33.803347 -118.344052 38 104ft 0kts
03-Oct-18 19:09 33.803347 -118.344052 38 104ft 0kts
03-Oct-18 19:10 33.803347 -118.344052 38 104ft 0kts
03-Oct-18 19:11 33.802946 -118.343152 128 104ft 8kts
03-Oct-18 19:12 33.801997 -118.340518 128 104ft 11kts
03-Oct-18 19:13 33.799598 -118.336905 129 104ft 15kts
03-Oct-18 19:14 33.798853 -118.333517 38 104ft 9kts
03-Oct-18 19:15 33.799145 -118.333244 37 104ft 0kts
03-Oct-18 19:16 33.799367 -118.333075 15 104ft 4kts
03-Oct-18 19:17 33.806704 -118.343761 310 172ft 78kts
03-Oct-18 19:18 33.818848 -118.360439 306 936ft 74kts
03-Oct-18 19:19 33.831103 -118.380687 303 2236ft 76kts
03-Oct-18 19:20 33.843867 -118.401884 302 3435ft 82kts
03-Oct-18 19:21 33.859418 -118.428118 305 3941ft 123kts
03-Oct-18 19:22 33.842053 -118.450322 170 3931ft 128kts
03-Oct-18 19:23 33.807066 -118.441398 179 3925ft 129kts
03-Oct-18 19:24 33.771489 -118.441410 158 3917ft 129kts
03-Oct-18 19:25 33.766795 -118.401274 87 3930ft 129kts
03-Oct-18 19:26 33.769111 -118.358085 87 3930ft 129kts
03-Oct-18 19:27 33.770688 -118.315343 90 3995ft 128kts
03-Oct-18 19:28 33.771385 -118.272145 89 3993ft 129kts
03-Oct-18 19:29 33.779545 -118.233101 18 3986ft 130kts
03-Oct-18 19:30 33.809452 -118.254529 320 3993ft 131kts
03-Oct-18 19:31 33.837225 -118.282755 319 3993ft 131kts
03-Oct-18 19:32 33.864676 -118.310605 319 3993ft 131kts
03-Oct-18 19:33 33.892526 -118.338866 319 3993ft 131kts
03-Oct-18 19:34 33.920308 -118.367055 319 3993ft 131kts
03-Oct-18 19:35 33.947413 -118.394555 319 3993ft 131kts
03-Oct-18 19:36 33.975036 -118.422579 319 3993ft 131kts
03-Oct-18 19:37 34.002918 -118.450863 319 3993ft 131kts
03-Oct-18 19:38 34.034136 -118.472303 347 4151ft 121kts
03-Oct-18 19:39 34.062215 -118.486035 332 4976ft 106kts
03-Oct-18 19:40 34.093892 -118.504203 338 4955ft 134kts
03-Oct-18 19:41 34.129477 -118.519236 341 4954ft 136kts
03-Oct-18 19:42 34.165310 -118.534297 340 4954ft 136kts
03-Oct-18 19:43 34.201176 -118.548726 341 4954ft 136kts
03-Oct-18 19:44 34.235907 -118.562525 341 4953ft 131kts
03-Oct-18 19:45 34.270203 -118.575217 354 4948ft 119kts
03-Oct-18 19:46 34.305274 -118.581622 351 4955ft 134kts
03-Oct-18 19:47 34.342501 -118.588311 351 4953ft 135kts
03-Oct-18 19:48 34.379528 -118.594976 351 4954ft 134kts
03-Oct-18 19:49 34.416401 -118.601608 351 4954ft 134kts
03-Oct-18 19:50 34.453383 -118.608256 351 4954ft 134kts
03-Oct-18 19:51 34.484188 -118.613790 351 4954ft 134kts
03-Oct-18 19:52 34.500760 -118.576579 92 4954ft 132kts
03-Oct-18 19:53 34.491780 -118.536108 138 4955ft 131kts
03-Oct-18 19:54 34.467410 -118.514910 174 4948ft 131kts
03-Oct-18 19:55 34.425404 -118.512185 177 4952ft 126kts
03-Oct-18 19:56 34.396694 -118.509623 172 4953ft 123kts
03-Oct-18 19:57 34.361965 -118.506621 176 4659ft 141kts
03-Oct-18 19:58 34.319718 -118.503326 176 3554ft 157kts
03-Oct-18 19:59 34.276486 -118.496599 168 2460ft 157kts
03-Oct-18 20:00 34.233000 -118.490551 181 1312ft 159kts
03-Oct-18 20:01 34.195366 -118.488408 175 998ft 114kts
03-Oct-18 20:02 34.170769 -118.480944 136 1281ft 87kts
03-Oct-18 20:03 34.148349 -118.476203 175 2143ft 82kts
03-Oct-18 20:04 34.126092 -118.474368 169 3264ft 82kts
03-Oct-18 20:05 34.103641 -118.471777 173 4541ft 82kts
03-Oct-18 20:06 34.068933 -118.466113 170 4522ft 146kts
03-Oct-18 20:07 34.028173 -118.459033 172 4516ft 143kts
03-Oct-18 20:08 34.003832 -118.478553 281 4518ft 134kts
03-Oct-18 20:09 34.017686 -118.517555 284 4520ft 134kts
03-Oct-18 20:10 34.023178 -118.559357 272 4519ft 134kts
03-Oct-18 20:11 34.030286 -118.598723 322 4440ft 139kts
03-Oct-18 20:12 34.060336 -118.627476 322 4484ft 113kts
03-Oct-18 20:13 34.090265 -118.657088 320 4020ft 138kts
03-Oct-18 20:14 34.119588 -118.686028 320 4020ft 134kts
03-Oct-18 20:15 34.145019 -118.711129 320 4020ft 123kts
03-Oct-18 20:16 34.174973 -118.705032 57 4020ft 119kts
03-Oct-18 20:17 34.192377 -118.670947 59 4021ft 120kts
03-Oct-18 20:18 34.201724 -118.632573 78 3726ft 140kts
03-Oct-18 20:19 34.202923 -118.589996 88 2809ft 138kts
03-Oct-18 20:20 34.201918 -118.542181 93 1489ft 120kts
03-Oct-18 20:21 34.197022 -118.512004 137 1485ft 75kts
03-Oct-18 20:22 34.179457 -118.507554 176 1480ft 71kts
03-Oct-18 20:23 34.154777 -118.496843 104 1498ft 116kts
03-Oct-18 20:24 34.163765 -118.464944 3 1498ft 122kts
03-Oct-18 20:25 34.197887 -118.463235 358 1494ft 123kts
03-Oct-18 20:26 34.230829 -118.463943 356 1538ft 111kts
03-Oct-18 20:27 34.238218 -118.489773 208 1483ft 99kts
03-Oct-18 20:28 34.213739 -118.489516 160 782ft 55kts
03-Oct-18 20:29 34.208855 -118.488613 122 781ft 3kts
03-Oct-18 20:30 34.208755 -118.488225 42 781ft 6kts
03-Oct-18 20:31 34.210305 -118.487152 74 781ft 7kts
03-Oct-18 20:32 34.210736 -118.487013 268 781ft 0kts
03-Oct-18 20:33 34.210736 -118.487013 268 781ft 0kts
03-Oct-18 20:34 34.210736 -118.487013 268 781ft 0kts
03-Oct-18 20:35 34.210736 -118.487013 268 781ft 0kts
03-Oct-18 20:36 34.210736 -118.487012 268 781ft 0kts
03-Oct-18 20:37 34.210736 -118.487012 268 781ft 0kts
03-Oct-18 20:38 34.210736 -118.487012 268 781ft 0kts
03-Oct-18 20:39 34.210736 -118.487012 268 781ft 0kts
03-Oct-18 20:40 34.210736 -118.487012 268 781ft 0kts
03-Oct-18 20:41 34.210736 -118.487012 268 781ft 0kts
03-Oct-18 20:42 34.210736 -118.487012 268 781ft 0kts
03-Oct-18 20:43 34.210736 -118.487012 268 781ft 0kts

Navigation Log

Ident Type
Flight plan parsing failed, navigation log unavailable